Latest Weather Observations for Yarram Airport

IDV60801

Issued at 6:32 pm EST Tuesday 17 May 2022 (issued every 10 minutes, with the page automatically refreshed every 10 minutes)

About weather observations | Map of weather stations | Latest weather observations for VIC | Other Formats
Station Details ID: 085151 Name: YARRAM AIRPORT Lat: -38.56 Lon: 146.75 Height: 17.9 m
Data from the previous 72 hours. | See also: Recent months at Yarram Airport
Date/Time
EST
Temp
°C
App
Temp
°C
Dew
Point
°C
Rel
Hum
%
Delta-T
°C
Wind Press
QNH
hPa
Press
MSL
hPa
Rain since
9am
mm
Dir  Spd
km/h
Gust
km/h
Spd
kts
Gust
kts
17/06:30pm 12.0 6.7 5.0 62 3.2 NW 22 30 12 16 1015.5 1015.5 0.0
17/06:00pm 11.8 6.5 5.2 64 3.0 NW 22 32 12 17 1015.4 1015.4 0.0
17/05:30pm 11.6 6.4 5.5 66 2.8 NW 22 37 12 20 1015.4 1015.4 0.0
17/05:00pm 12.4 7.2 5.6 63 3.2 NW 22 33 12 18 1015.4 1015.4 0.0
17/04:30pm 13.0 8.2 5.7 61 3.4 NW 20 32 11 17 1015.3 1015.3 0.0
17/04:00pm 13.4 8.6 5.8 60 3.6 NW 20 28 11 15 1015.4 1015.4 0.0
17/03:30pm 13.3 8.1 5.7 60 3.6 WNW 22 30 12 16 1015.3 1015.3 0.0
17/03:00pm 13.2 7.6 5.6 60 3.6 WNW 24 35 13 19 1015.4 1015.4 0.0
17/02:30pm 13.3 6.6 5.5 59 3.7 WNW 30 41 16 22 1015.4 1015.4 0.0
17/02:00pm 14.5 9.1 6.3 58 3.9 WNW 24 37 13 20 1015.4 1015.4 0.0
17/01:30pm 13.4 6.6 5.3 58 3.8 WNW 30 39 16 21 1015.3 1015.3 0.0
17/01:00pm 14.6 8.3 5.7 55 4.2 WNW 28 43 15 23 1015.5 1015.5 0.0
17/12:32pm 13.8 6.7 5.4 57 3.9 WNW 32 50 17 27 1015.9 1015.9 0.0
17/12:30pm 14.2 7.0 6.1 58 3.9 WNW 33 50 18 27 1015.9 1015.9 0.0
17/12:02pm 14.0 6.5 6.4 60 3.7 WNW 35 54 19 29 1016.0 1016.0 0.0
17/12:00pm 14.0 5.9 5.4 56 4.0 WNW 37 54 20 29 1016.0 1016.0 0.0
17/11:48am 14.5 7.6 6.3 58 3.9 WNW 32 50 17 27 1016.2 1016.2 0.0
17/11:30am 14.4 7.3 6.3 58 3.9 WNW 33 46 18 25 1016.4 1016.4 0.0
17/11:04am 13.9 6.6 5.3 56 4.0 WNW 33 52 18 28 1016.4 1016.4 0.0
17/11:00am 14.3 6.8 6.4 59 3.8 WNW 35 50 19 27 1016.5 1016.5 0.0
17/10:30am 13.4 5.3 5.1 57 3.9 WNW 37 48 20 26 1016.6 1016.6 0.0
17/10:00am 12.7 5.6 5.6 62 3.3 WNW 32 44 17 24 1016.8 1016.8 0.0
17/09:30am 12.3 5.2 5.7 64 3.1 WNW 32 44 17 24 1017.0 1017.0 0.0
17/09:00am 11.9 6.3 5.3 64 3.0 WNW 24 35 13 19 1016.8 1016.8 0.2
17/08:30am 11.3 6.0 5.2 66 2.8 WNW 22 32 12 17 1016.7 1016.7 0.2
17/08:00am 10.7 5.4 5.0 68 2.6 WNW 22 30 12 16 1016.4 1016.4 0.2
17/07:30am 9.7 4.7 4.7 71 2.2 NW 20 33 11 18 1016.1 1016.1 0.2
17/07:00am 8.4 5.0 4.2 75 1.8 WNW 11 15 6 8 1016.1 1016.1 0.2
17/06:30am 10.0 3.9 5.0 71 2.3 WNW 26 37 14 20 1015.4 1015.4 0.2
17/06:00am 9.8 5.1 5.2 73 2.1 WNW 19 30 10 16 1015.3 1015.3 0.2
17/05:30am 10.2 3.8 5.0 70 2.4 NW 28 43 15 23 1014.9 1014.9 0.2
17/05:00am 10.1 4.5 5.5 73 2.1 WNW 24 35 13 19 1014.9 1014.9 0.2
17/04:30am 9.8 4.6 5.4 74 2.0 WNW 22 32 12 17 1014.6 1014.6 0.2
17/04:00am 9.7 4.8 5.3 74 2.0 WNW 20 26 11 14 1014.5 1014.5 0.2
17/03:30am 9.7 5.0 5.3 74 2.0 NW 19 26 10 14 1014.4 1014.4 0.2
17/03:00am 10.4 4.1 5.6 72 2.2 WNW 28 44 15 24 1014.2 1014.2 0.2
17/02:30am 10.0 4.8 5.6 74 2.0 NW 22 32 12 17 1014.1 1014.1 0.2
17/02:00am 10.0 5.2 5.8 75 1.9 WNW 20 28 11 15 1014.2 1014.2 0.2
17/01:30am 10.7 6.1 6.3 74 2.1 WNW 20 28 11 15 1014.4 1014.4 0.2
17/01:00am 10.2 5.4 5.8 74 2.0 WNW 20 28 11 15 1014.4 1014.4 0.2
17/12:30am 10.4 5.7 6.0 74 2.0 WNW 20 28 11 15 1014.5 1014.5 0.2
17/12:00am 10.2 5.4 5.8 74 2.0 WNW 20 33 11 18 1014.1 1014.1 0.2
 
Date/Time
EST
Temp
°C
App
Temp
°C
Dew
Point
°C
Rel
Hum
%
Delta-T
°C
Wind Press
QNH
hPa
Press
MSL
hPa
Rain since
9am
mm
Dir  Spd
km/h
Gust
km/h
Spd
kts
Gust
kts
16/11:30pm 10.6 5.2 6.2 74 2.0 WNW 24 35 13 19 1013.9 1013.9 0.2
16/11:00pm 10.5 6.1 6.5 76 1.9 WNW 19 26 10 14 1013.9 1013.9 0.2
16/10:30pm 10.9 6.3 6.5 74 2.1 WNW 20 30 11 16 1013.9 1013.9 0.2
16/10:00pm 10.6 6.0 6.6 76 1.9 WNW 20 26 11 14 1013.5 1013.5 0.2
16/09:30pm 10.8 4.7 6.6 75 2.0 WNW 28 41 15 22 1013.5 1013.5 0.2
16/09:00pm 10.7 5.4 7.0 78 1.8 WNW 24 33 13 18 1013.5 1013.5 0.2
16/08:30pm 10.9 5.7 7.2 78 1.8 WNW 24 33 13 18 1013.4 1013.4 0.2
16/08:00pm 10.9 6.5 7.6 80 1.6 WNW 20 28 11 15 1013.0 1013.0 0.2
16/07:30pm 10.6 7.0 8.2 85 1.2 NW 17 22 9 12 1012.7 1012.7 0.2
16/07:00pm 11.0 7.5 8.6 85 1.2 WNW 17 26 9 14 1012.8 1012.8 0.2
16/06:30pm 10.7 7.0 7.9 83 1.4 NW 17 26 9 14 1012.0 1012.0 0.2
16/06:00pm 12.1 8.5 8.4 78 1.8 NW 17 20 9 11 1011.7 1011.7 0.0
16/05:30pm 11.8 7.8 8.1 78 1.8 NW 19 24 10 13 1011.2 1011.2 0.0
16/05:00pm 12.3 7.7 8.2 76 2.0 NW 22 32 12 17 1011.2 1011.2 0.0
16/04:30pm 12.3 8.4 8.6 78 1.8 NW 19 24 10 13 1011.0 1011.0 0.0
16/04:00pm 12.5 8.3 8.4 76 2.0 WNW 20 28 11 15 1010.9 1010.9 0.0
16/03:30pm 12.8 8.1 9.1 78 1.9 WNW 24 30 13 16 1010.8 1010.8 0.0
16/03:00pm 12.6 7.9 9.2 80 1.7 WNW 24 33 13 18 1010.7 1010.7 0.0
16/02:30pm 13.0 7.6 8.1 72 2.4 NW 26 37 14 20 1010.6 1010.6 0.0
16/02:00pm 13.2 7.2 8.5 73 2.3 WNW 30 39 16 21 1010.7 1010.7 0.0
16/01:30pm 14.8 9.3 7.4 61 3.7 W 26 35 14 19 1010.3 1010.3 0.0
16/01:00pm 15.1 8.2 7.2 59 3.9 WNW 33 52 18 28 1010.3 1010.3 0.0
16/12:59pm 15.2 8.4 7.0 58 4.0 WNW 32 52 17 28 1010.3 1010.3 0.0
16/12:30pm 15.2 8.5 7.5 60 3.8 WNW 32 41 17 22 1010.7 1010.7 0.0
16/12:00pm 14.3 7.1 7.6 64 3.3 WNW 35 48 19 26 1011.0 1011.0 0.0
16/11:36am 15.5 8.8 7.5 59 4.0 WNW 32 54 17 29 1011.2 1011.2 0.0
16/11:30am 15.8 9.1 7.3 57 4.2 WNW 32 41 17 22 1011.2 1011.2 0.0
16/11:00am 16.1 8.6 6.5 53 4.7 WNW 35 54 19 29 1011.4 1011.4 0.0
16/10:56am 15.9 8.8 6.3 53 4.7 WNW 33 54 18 29 1011.4 1011.4 0.0
16/10:30am 15.4 8.6 6.9 57 4.2 WNW 32 46 17 25 1011.4 1011.4 0.0
16/10:00am 15.6 8.6 6.9 56 4.3 WNW 33 44 18 24 1011.3 1011.3 0.0
16/09:36am 15.3 7.9 6.6 56 4.2 WNW 35 56 19 30 1011.1 1011.1 0.0
16/09:30am 15.2 8.2 6.7 57 4.1 WNW 33 48 18 26 1011.1 1011.1 0.0
16/09:01am 15.0 7.9 6.6 57 4.1 NW 33 52 18 28 1010.8 1010.8 0.0
16/09:00am 15.0 8.0 6.8 58 4.0 NW 33 50 18 27 1010.8 1010.8 0.2
16/08:40am 14.6 8.1 6.7 59 3.8 WNW 30 50 16 27 1010.8 1010.8 0.2
16/08:30am 14.5 9.2 6.6 59 3.8 WNW 24 41 13 22 1010.9 1010.9 0.2
16/08:00am 14.0 9.4 6.4 60 3.7 NW 20 30 11 16 1010.7 1010.7 0.2
16/07:30am 12.3 9.0 6.6 68 2.7 WNW 13 24 7 13 1010.5 1010.5 0.2
16/07:00am 12.3 8.7 6.6 68 2.7 W 15 22 8 12 1010.4 1010.4 0.2
16/06:30am 13.3 8.0 6.6 64 3.2 WNW 24 39 13 21 1010.2 1010.2 0.2
16/06:00am 12.2 9.1 7.3 72 2.4 WNW 13 24 7 13 1009.8 1009.8 0.2
16/05:30am 12.0 8.3 6.3 68 2.7 W 15 20 8 11 1009.5 1009.5 0.2
16/05:00am 13.4 7.6 6.3 62 3.4 WNW 26 37 14 20 1009.3 1009.3 0.2
16/04:30am 12.4 8.3 6.2 66 2.9 WNW 17 28 9 15 1009.3 1009.3 0.2
16/04:00am 10.7 7.7 6.1 73 2.1 W 11 13 6 7 1009.3 1009.3 0.2
16/03:30am 11.7 8.0 6.4 70 2.5 WNW 15 22 8 12 1009.0 1009.0 0.2
16/03:00am 12.9 8.0 6.7 66 3.0 WNW 22 32 12 17 1009.0 1009.0 0.2
16/02:30am 13.2 7.7 7.4 68 2.8 WNW 26 41 14 22 1009.0 1009.0 0.0
16/02:00am 13.8 9.2 8.2 69 2.8 WNW 22 33 12 18 1009.0 1009.0 0.0
16/01:30am 14.4 8.3 8.1 66 3.1 WNW 30 41 16 22 1008.9 1008.9 0.0
16/01:03am 14.3 7.7 7.6 64 3.3 WNW 32 50 17 27 1009.0 1009.0 0.0
16/01:00am 14.4 7.8 7.7 64 3.3 WNW 32 44 17 24 1008.9 1008.9 0.0
16/12:57am 14.2 7.6 7.9 66 3.1 WNW 32 50 17 27 1008.9 1008.9 0.0
16/12:30am 14.3 7.9 8.7 69 2.8 WNW 32 44 17 24 1008.9 1008.9 0.0
16/12:07am 15.8 8.5 10.1 69 3.0 WNW 39 69 21 37 1008.5 1008.5 0.0
16/12:03am 17.2 10.9 9.1 59 4.2 WNW 32 50 17 27 1008.0 1008.0 0.0
16/12:00am 17.4 11.5 9.1 58 4.3 WNW 30 43 16 23 1007.8 1007.8 0.0
 
Date/Time
EST
Temp
°C
App
Temp
°C
Dew
Point
°C
Rel
Hum
%
Delta-T
°C
Wind Press
QNH
hPa
Press
MSL
hPa
Rain since
9am
mm
Dir  Spd
km/h
Gust
km/h
Spd
kts
Gust
kts
15/11:30pm 17.7 10.7 8.6 55 4.7 NW 35 63 19 34 1007.5 1007.5 0.0
15/11:04pm 18.3 11.2 8.0 51 5.3 NW 35 63 19 34 1007.3 1007.3 0.0
15/11:00pm 18.2 11.6 7.9 51 5.3 NW 32 48 17 26 1007.3 1007.3 0.0
15/10:53pm 18.3 12.1 8.0 51 5.3 NW 30 48 16 26 1007.1 1007.1 0.0
15/10:30pm 18.2 13.2 8.2 52 5.1 NW 24 39 13 21 1007.0 1007.0 0.0
15/10:00pm 18.0 12.7 8.6 54 4.9 NNW 26 41 14 22 1006.8 1006.8 0.0
15/09:34pm 17.9 11.8 8.2 53 5.0 NNW 30 48 16 26 1006.8 1006.8 0.0
15/09:30pm 18.2 12.2 8.5 53 5.0 NNW 30 46 16 25 1006.5 1006.5 0.0
15/09:16pm 17.5 11.8 8.4 55 4.7 NNW 28 54 15 29 1006.5 1006.5 0.0
15/09:00pm 17.9 11.4 8.2 53 5.0 NNW 32 43 17 23 1006.4 1006.4 0.0
15/08:30pm 18.1 11.0 8.1 52 5.1 NNW 35 48 19 26 1006.6 1006.6 0.0
15/08:00pm 18.2 10.4 8.2 52 5.1 NW 39 63 21 34 1006.6 1006.6 0.0
15/07:37pm 18.1 11.5 8.4 53 5.0 NW 33 59 18 32 1006.8 1006.8 0.0
15/07:30pm 18.2 11.8 8.5 53 5.0 NW 32 44 17 24 1006.8 1006.8 0.0
15/07:00pm 17.3 12.0 8.4 56 4.6 NW 26 43 14 23 1006.8 1006.8 0.0
15/06:30pm 16.5 12.6 8.5 59 4.1 NW 19 26 10 14 1006.9 1006.9 0.0
15/06:00pm 17.3 13.1 8.2 55 4.7 NW 20 37 11 20 1007.0 1007.0 0.0
15/05:30pm 17.5 13.5 8.1 54 4.8 NW 19 28 10 15 1006.8 1006.8 0.0
15/05:00pm 18.3 14.0 8.0 51 5.3 NNW 20 30 11 16 1006.6 1006.6 0.0
15/04:30pm 18.4 14.2 8.4 52 5.2 NW 20 33 11 18 1006.8 1006.8 0.0
15/04:15pm 19.0 13.2 7.8 48 5.7 NW 28 46 15 25 1006.7 1006.7 0.0
15/04:00pm 19.7 13.3 8.4 48 5.9 NW 32 46 17 25 1006.7 1006.7 0.0
15/03:32pm 20.2 14.5 8.2 46 6.2 NW 28 48 15 26 1006.7 1006.7 0.0
15/03:30pm 20.3 15.0 8.6 47 6.1 NW 26 37 14 20 1006.9 1006.9 0.0
15/03:00pm 20.7 15.1 8.7 46 6.3 NW 28 43 15 23 1006.9 1006.9 0.0
15/02:30pm 20.0 15.5 10.1 53 5.3 NW 24 35 13 19 1006.9 1006.9 0.0
15/02:00pm 20.0 15.3 9.3 50 5.7 NW 24 39 13 21 1007.0 1007.0 0.0
15/01:30pm 20.1 16.6 10.2 53 5.3 WNW 19 28 10 15 1007.5 1007.5 0.0
15/01:00pm 20.8 15.4 10.9 53 5.4 NW 30 41 16 22 1007.8 1007.8 0.0
15/12:30pm 21.1 16.8 12.0 56 5.1 NW 26 41 14 22 1008.4 1008.4 0.0
15/12:00pm 20.1 15.9 9.9 52 5.5 NNW 22 33 12 18 1009.0 1009.0 0.0
15/11:30am 20.5 16.9 10.6 53 5.4 NW 20 28 11 15 1009.7 1009.7 0.0
15/11:00am 19.6 14.7 10.0 54 5.1 NW 26 35 14 19 1010.1 1010.1 0.0
15/10:30am 19.5 17.7 13.2 67 3.6 WNW 15 20 8 11 1010.8 1010.8 0.0
15/10:00am 18.9 16.6 11.7 63 4.0 NW 15 22 8 12 1011.1 1011.1 0.0
15/09:30am 18.6 17.5 12.1 66 3.6 NNW 9 17 5 9 1011.2 1011.2 0.0
15/09:00am 17.1 16.6 13.8 81 1.9 NNE 9 13 5 7 1011.3 1011.3 0.4
15/08:30am 14.7 13.6 13.2 91 0.8 N 11 13 6 7 1011.5 1011.5 0.4
15/08:00am 12.4 10.6 11.0 91 0.7 N 11 13 6 7 1011.4 1011.4 0.4
15/07:30am 12.8 11.4 11.0 89 0.9 N 9 11 5 6 1011.4 1011.4 0.4
15/07:00am 13.7 12.6 11.9 89 1.0 N 9 13 5 7 1011.2 1011.2 0.4
15/06:30am 13.0 11.8 11.6 91 0.7 N 9 9 5 5 1011.1 1011.1 0.4
15/06:00am 11.8 9.9 10.4 91 0.7 N 11 13 6 7 1011.1 1011.1 0.4
15/05:30am 12.1 10.4 9.8 86 1.2 N 9 11 5 6 1011.1 1011.1 0.4
15/05:00am 13.9 12.4 11.8 87 1.1 N 11 13 6 7 1011.1 1011.1 0.4
15/04:30am 13.7 12.4 11.4 86 1.2 NW 9 11 5 6 1011.0 1011.0 0.4
15/04:00am 11.9 10.1 9.5 85 1.2 NW 9 11 5 6 1011.1 1011.1 0.4
15/03:30am 13.3 10.3 10.5 83 1.5 NW 17 19 9 10 1011.3 1011.3 0.4
15/03:00am 12.4 10.1 10.3 87 1.1 WNW 13 15 7 8 1011.2 1011.2 0.4
15/02:30am 12.7 10.7 10.1 84 1.3 NW 11 15 6 8 1011.5 1011.5 0.4
15/02:00am 13.3 10.9 10.1 81 1.7 NW 13 17 7 9 1011.5 1011.5 0.4
15/01:30am 13.5 11.3 10.7 83 1.5 NW 13 15 7 8 1011.3 1011.3 0.4
15/01:00am 14.4 11.6 11.2 81 1.7 NNW 17 20 9 11 1011.7 1011.7 0.4
15/12:30am 14.6 11.9 11.6 82 1.6 NNW 17 20 9 11 1011.7 1011.7 0.4
15/12:00am 12.5 10.5 11.4 93 0.6 NNW 13 19 7 10 1011.8 1011.8 0.4
 
Date/Time
EST
Temp
°C
App
Temp
°C
Dew
Point
°C
Rel
Hum
%
Delta-T
°C
Wind Press
QNH
hPa
Press
MSL
hPa
Rain since
9am
mm
Dir  Spd
km/h
Gust
km/h
Spd
kts
Gust
kts
14/11:30pm 10.5 8.8 9.9 96 0.3 NNE 9 11 5 6 1012.0 1012.0 0.4
14/11:00pm 9.1 6.6 8.2 94 0.4 N 11 13 6 7 1012.0 1012.0 0.4
14/10:30pm 10.7 8.6 9.9 95 0.4 NNE 11 15 6 8 1012.1 1012.1 0.4
14/10:00pm 11.1 9.5 10.2 94 0.5 NNE 9 11 5 6 1012.3 1012.3 0.4
14/09:30pm 10.9 8.8 9.7 92 0.6 NNW 11 13 6 7 1012.2 1012.2 0.4
14/09:00pm 11.9 9.5 11.4 97 0.3 NNW 15 17 8 9 1012.0 1012.0 0.4
14/08:30pm 11.2 9.4 10.7 97 0.3 NNW 11 15 6 8 1011.6 1011.6 0.4
14/08:00pm 11.4 11.7 10.9 97 0.3 CALM 0 6 0 3 1011.5 1011.5 0.4
14/07:30pm 12.0 11.3 11.4 96 0.3 NNW 6 9 3 5 1011.3 1011.3 0.4
14/07:00pm 13.5 14.1 13.0 97 0.3 WNW 2 13 1 7 1011.1 1011.1 0.4

Other formats

Comma delimited format used in spreadsheet applications
http://www.bom.gov.au/fwo/IDV60801/IDV60801.95890.axf

JavaScript Object Notation format (JSON) in row-major order
http://www.bom.gov.au/fwo/IDV60801/IDV60801.95890.json

Data quality

Most of these data are generated automatically and are frequently updated. Quality checks on data are not normally performed. It is possible for incorrect values to appear. Refer to information at About Latest Weather Observations and please check the disclaimer before using these data.